sensor_id;sensor_type;location;lat;lon;timestamp;temperature;humidity
66752;SHT31;53663;42.676;23.238;2024-01-15T00:01:27;-2.74;73.54
66752;SHT31;53663;42.676;23.238;2024-01-15T00:03:52;-2.85;74.55
66752;SHT31;53663;42.676;23.238;2024-01-15T00:06:18;-2.85;74.50
66752;SHT31;53663;42.676;23.238;2024-01-15T00:08:43;-2.81;74.62
66752;SHT31;53663;42.676;23.238;2024-01-15T00:11:09;-2.76;74.22
66752;SHT31;53663;42.676;23.238;2024-01-15T00:13:34;-2.84;74.49
66752;SHT31;53663;42.676;23.238;2024-01-15T00:16:00;-2.77;74.12
66752;SHT31;53663;42.676;23.238;2024-01-15T00:18:25;-2.83;74.37
66752;SHT31;53663;42.676;23.238;2024-01-15T00:20:51;-2.77;74.34
66752;SHT31;53663;42.676;23.238;2024-01-15T00:23:16;-2.83;74.65
66752;SHT31;53663;42.676;23.238;2024-01-15T00:25:42;-2.85;74.66
66752;SHT31;53663;42.676;23.238;2024-01-15T00:28:07;-2.87;74.76
66752;SHT31;53663;42.676;23.238;2024-01-15T00:30:33;-2.81;74.38
66752;SHT31;53663;42.676;23.238;2024-01-15T00:32:58;-2.81;74.69
66752;SHT31;53663;42.676;23.238;2024-01-15T00:35:24;-2.79;74.67
66752;SHT31;53663;42.676;23.238;2024-01-15T00:37:49;-2.77;74.76
66752;SHT31;53663;42.676;23.238;2024-01-15T00:40:15;-2.73;74.27
66752;SHT31;53663;42.676;23.238;2024-01-15T00:42:40;-2.77;74.12
66752;SHT31;53663;42.676;23.238;2024-01-15T00:45:06;-2.77;74.23
66752;SHT31;53663;42.676;23.238;2024-01-15T00:47:33;-2.71;74.13
66752;SHT31;53663;42.676;23.238;2024-01-15T00:50:00;-2.81;74.37
66752;SHT31;53663;42.676;23.238;2024-01-15T00:52:25;-2.84;74.43
66752;SHT31;53663;42.676;23.238;2024-01-15T00:54:51;-2.76;73.75
66752;SHT31;53663;42.676;23.238;2024-01-15T00:57:16;-2.83;73.76
66752;SHT31;53663;42.676;23.238;2024-01-15T00:59:44;-2.84;74.17
66752;SHT31;53663;42.676;23.238;2024-01-15T01:02:10;-2.90;74.09
66752;SHT31;53663;42.676;23.238;2024-01-15T01:04:36;-2.87;73.73
66752;SHT31;53663;42.676;23.238;2024-01-15T01:07:01;-2.94;74.13
66752;SHT31;53663;42.676;23.238;2024-01-15T01:09:27;-2.91;74.23
66752;SHT31;53663;42.676;23.238;2024-01-15T01:11:55;-2.95;74.31
66752;SHT31;53663;42.676;23.238;2024-01-15T01:14:21;-3.01;74.16
66752;SHT31;53663;42.676;23.238;2024-01-15T01:16:46;-2.94;74.19
66752;SHT31;53663;42.676;23.238;2024-01-15T01:19:12;-3.02;74.07
66752;SHT31;53663;42.676;23.238;2024-01-15T01:21:37;-2.97;74.25
66752;SHT31;53663;42.676;23.238;2024-01-15T01:24:03;-3.00;74.44
66752;SHT31;53663;42.676;23.238;2024-01-15T01:26:29;-3.01;74.34
66752;SHT31;53663;42.676;23.238;2024-01-15T01:28:55;-3.02;74.55
66752;SHT31;53663;42.676;23.238;2024-01-15T01:31:20;-3.04;74.41
66752;SHT31;53663;42.676;23.238;2024-01-15T01:33:46;-3.13;75.14
66752;SHT31;53663;42.676;23.238;2024-01-15T01:36:11;-3.13;74.96
66752;SHT31;53663;42.676;23.238;2024-01-15T01:38:37;-3.08;74.89
66752;SHT31;53663;42.676;23.238;2024-01-15T01:41:03;-3.09;75.09
66752;SHT31;53663;42.676;23.238;2024-01-15T01:43:28;-3.11;75.14
66752;SHT31;53663;42.676;23.238;2024-01-15T01:45:56;-3.09;75.35
66752;SHT31;53663;42.676;23.238;2024-01-15T01:48:24;-3.11;75.00
66752;SHT31;53663;42.676;23.238;2024-01-15T01:50:50;-3.08;75.03
66752;SHT31;53663;42.676;23.238;2024-01-15T01:53:16;-3.16;75.35
66752;SHT31;53663;42.676;23.238;2024-01-15T01:55:42;-3.32;75.98
66752;SHT31;53663;42.676;23.238;2024-01-15T01:58:07;-3.36;75.99
66752;SHT31;53663;42.676;23.238;2024-01-15T02:00:33;-3.36;75.85
66752;SHT31;53663;42.676;23.238;2024-01-15T02:03:00;-3.32;75.98
66752;SHT31;53663;42.676;23.238;2024-01-15T02:05:25;-3.29;75.73
66752;SHT31;53663;42.676;23.238;2024-01-15T02:07:52;-3.28;75.63
66752;SHT31;53663;42.676;23.238;2024-01-15T02:10:18;-3.25;75.65
66752;SHT31;53663;42.676;23.238;2024-01-15T02:12:43;-3.29;75.56
66752;SHT31;53663;42.676;23.238;2024-01-15T02:15:09;-3.28;75.31
66752;SHT31;53663;42.676;23.238;2024-01-15T02:17:34;-3.29;75.67
66752;SHT31;53663;42.676;23.238;2024-01-15T02:20:00;-3.40;75.98
66752;SHT31;53663;42.676;23.238;2024-01-15T02:22:26;-3.59;76.53
66752;SHT31;53663;42.676;23.238;2024-01-15T02:24:51;-3.55;76.55
66752;SHT31;53663;42.676;23.238;2024-01-15T02:27:17;-3.69;77.18
66752;SHT31;53663;42.676;23.238;2024-01-15T02:29:43;-3.63;77.04
66752;SHT31;53663;42.676;23.238;2024-01-15T02:32:09;-3.55;76.68
66752;SHT31;53663;42.676;23.238;2024-01-15T02:34:34;-3.48;76.43
66752;SHT31;53663;42.676;23.238;2024-01-15T02:37:00;-3.48;76.50
66752;SHT31;53663;42.676;23.238;2024-01-15T02:39:25;-3.39;75.91
66752;SHT31;53663;42.676;23.238;2024-01-15T02:41:51;-3.45;75.90
66752;SHT31;53663;42.676;23.238;2024-01-15T02:44:16;-3.55;76.71
66752;SHT31;53663;42.676;23.238;2024-01-15T02:46:42;-3.32;76.37
66752;SHT31;53663;42.676;23.238;2024-01-15T02:49:08;-3.18;75.89
66752;SHT31;53663;42.676;23.238;2024-01-15T02:51:34;-3.19;76.12
66752;SHT31;53663;42.676;23.238;2024-01-15T02:54:00;-3.11;76.00
66752;SHT31;53663;42.676;23.238;2024-01-15T02:56:25;-3.08;76.09
66752;SHT31;53663;42.676;23.238;2024-01-15T02:58:51;-3.02;75.98
66752;SHT31;53663;42.676;23.238;2024-01-15T03:01:18;-2.90;75.65
66752;SHT31;53663;42.676;23.238;2024-01-15T03:03:44;-2.81;75.20
66752;SHT31;53663;42.676;23.238;2024-01-15T03:06:10;-2.76;75.01
66752;SHT31;53663;42.676;23.238;2024-01-15T03:08:36;-2.81;74.85
66752;SHT31;53663;42.676;23.238;2024-01-15T03:11:06;-2.79;74.80
66752;SHT31;53663;42.676;23.238;2024-01-15T03:13:37;-2.74;75.00
66752;SHT31;53663;42.676;23.238;2024-01-15T03:16:07;-2.64;74.67
66752;SHT31;53663;42.676;23.238;2024-01-15T03:18:33;-2.63;74.67
66752;SHT31;53663;42.676;23.238;2024-01-15T03:20:58;-2.71;74.49
66752;SHT31;53663;42.676;23.238;2024-01-15T03:23:26;-2.57;74.25
66752;SHT31;53663;42.676;23.238;2024-01-15T03:25:52;-2.56;74.62
66752;SHT31;53663;42.676;23.238;2024-01-15T03:28:17;-2.43;74.48
66752;SHT31;53663;42.676;23.238;2024-01-15T03:30:43;-2.36;74.99
66752;SHT31;53663;42.676;23.238;2024-01-15T03:33:08;-2.32;74.64
66752;SHT31;53663;42.676;23.238;2024-01-15T03:35:34;-2.25;74.35
66752;SHT31;53663;42.676;23.238;2024-01-15T03:38:01;-2.23;74.10
66752;SHT31;53663;42.676;23.238;2024-01-15T03:40:26;-2.23;74.40
66752;SHT31;53663;42.676;23.238;2024-01-15T03:42:52;-2.18;74.19
66752;SHT31;53663;42.676;23.238;2024-01-15T03:45:18;-2.25;74.25
66752;SHT31;53663;42.676;23.238;2024-01-15T03:47:43;-2.31;74.60
66752;SHT31;53663;42.676;23.238;2024-01-15T03:50:09;-2.32;74.54
66752;SHT31;53663;42.676;23.238;2024-01-15T03:52:34;-2.26;74.28
66752;SHT31;53663;42.676;23.238;2024-01-15T03:55:00;-2.26;74.13
66752;SHT31;53663;42.676;23.238;2024-01-15T03:57:25;-2.21;74.11
66752;SHT31;53663;42.676;23.238;2024-01-15T03:59:52;-2.31;74.10
66752;SHT31;53663;42.676;23.238;2024-01-15T04:02:19;-2.48;74.72
66752;SHT31;53663;42.676;23.238;2024-01-15T04:04:44;-2.54;74.35
66752;SHT31;53663;42.676;23.238;2024-01-15T04:07:10;-2.63;74.69
66752;SHT31;53663;42.676;23.238;2024-01-15T04:09:35;-2.53;74.57
66752;SHT31;53663;42.676;23.238;2024-01-15T04:12:01;-2.57;74.44
66752;SHT31;53663;42.676;23.238;2024-01-15T04:14:26;-2.56;74.44
66752;SHT31;53663;42.676;23.238;2024-01-15T04:16:52;-2.48;74.16
66752;SHT31;53663;42.676;23.238;2024-01-15T04:19:17;-2.53;74.07
66752;SHT31;53663;42.676;23.238;2024-01-15T04:21:43;-2.57;73.95
66752;SHT31;53663;42.676;23.238;2024-01-15T04:24:08;-2.67;74.11
66752;SHT31;53663;42.676;23.238;2024-01-15T04:26:34;-2.70;74.49
66752;SHT31;53663;42.676;23.238;2024-01-15T04:28:59;-2.66;74.37
66752;SHT31;53663;42.676;23.238;2024-01-15T04:31:25;-2.67;74.27
66752;SHT31;53663;42.676;23.238;2024-01-15T04:33:52;-2.90;74.80
66752;SHT31;53663;42.676;23.238;2024-01-15T04:36:18;-2.95;75.20
66752;SHT31;53663;42.676;23.238;2024-01-15T04:38:43;-2.84;75.25
66752;SHT31;53663;42.676;23.238;2024-01-15T04:41:13;-2.90;74.76
66752;SHT31;53663;42.676;23.238;2024-01-15T04:43:39;-2.87;74.61
66752;SHT31;53663;42.676;23.238;2024-01-15T04:46:06;-2.92;74.73
66752;SHT31;53663;42.676;23.238;2024-01-15T04:48:32;-2.92;74.66
66752;SHT31;53663;42.676;23.238;2024-01-15T04:50:57;-2.94;75.17
66752;SHT31;53663;42.676;23.238;2024-01-15T04:53:23;-2.87;75.10
66752;SHT31;53663;42.676;23.238;2024-01-15T04:55:48;-3.09;76.10
66752;SHT31;53663;42.676;23.238;2024-01-15T04:58:14;-3.01;76.27
66752;SHT31;53663;42.676;23.238;2024-01-15T05:00:39;-3.02;76.09
66752;SHT31;53663;42.676;23.238;2024-01-15T05:03:05;-2.97;76.10
66752;SHT31;53663;42.676;23.238;2024-01-15T05:05:30;-2.97;75.90
66752;SHT31;53663;42.676;23.238;2024-01-15T05:07:56;-2.81;75.97
66752;SHT31;53663;42.676;23.238;2024-01-15T05:10:21;-2.87;76.08
66752;SHT31;53663;42.676;23.238;2024-01-15T05:12:47;-2.88;76.50
66752;SHT31;53663;42.676;23.238;2024-01-15T05:15:12;-2.84;76.08
66752;SHT31;53663;42.676;23.238;2024-01-15T05:17:38;-2.79;75.61
66752;SHT31;53663;42.676;23.238;2024-01-15T05:20:04;-2.83;75.58
66752;SHT31;53663;42.676;23.238;2024-01-15T05:22:30;-2.83;75.51
66752;SHT31;53663;42.676;23.238;2024-01-15T05:24:55;-2.90;75.63
66752;SHT31;53663;42.676;23.238;2024-01-15T05:27:21;-3.08;76.53
66752;SHT31;53663;42.676;23.238;2024-01-15T05:29:46;-3.04;76.65
66752;SHT31;53663;42.676;23.238;2024-01-15T05:32:12;-3.23;77.30
66752;SHT31;53663;42.676;23.238;2024-01-15T05:34:37;-3.11;77.19
66752;SHT31;53663;42.676;23.238;2024-01-15T05:37:03;-3.12;76.74
66752;SHT31;53663;42.676;23.238;2024-01-15T05:39:28;-3.12;77.16
66752;SHT31;53663;42.676;23.238;2024-01-15T05:41:54;-3.00;76.60
66752;SHT31;53663;42.676;23.238;2024-01-15T05:44:19;-2.95;76.22
66752;SHT31;53663;42.676;23.238;2024-01-15T05:46:45;-3.18;76.55
66752;SHT31;53663;42.676;23.238;2024-01-15T05:49:10;-3.11;76.57
66752;SHT31;53663;42.676;23.238;2024-01-15T05:51:36;-3.08;76.55
66752;SHT31;53663;42.676;23.238;2024-01-15T05:54:01;-3.07;76.31
66752;SHT31;53663;42.676;23.238;2024-01-15T05:56:27;-3.01;76.28
66752;SHT31;53663;42.676;23.238;2024-01-15T05:58:52;-3.04;76.41
66752;SHT31;53663;42.676;23.238;2024-01-15T06:01:18;-3.07;76.38
66752;SHT31;53663;42.676;23.238;2024-01-15T06:03:43;-2.97;76.45
66752;SHT31;53663;42.676;23.238;2024-01-15T06:06:09;-2.95;76.55
66752;SHT31;53663;42.676;23.238;2024-01-15T06:08:34;-2.81;76.04
66752;SHT31;53663;42.676;23.238;2024-01-15T06:11:00;-2.76;76.11
66752;SHT31;53663;42.676;23.238;2024-01-15T06:13:25;-2.63;75.56
66752;SHT31;53663;42.676;23.238;2024-01-15T06:15:51;-2.49;75.53
66752;SHT31;53663;42.676;23.238;2024-01-15T06:18:16;-2.35;74.90
66752;SHT31;53663;42.676;23.238;2024-01-15T06:20:42;-2.06;73.98
66752;SHT31;53663;42.676;23.238;2024-01-15T06:23:08;-1.47;72.74
66752;SHT31;53663;42.676;23.238;2024-01-15T06:25:33;-1.31;71.31
66752;SHT31;53663;42.676;23.238;2024-01-15T06:27:59;-1.26;70.97
66752;SHT31;53663;42.676;23.238;2024-01-15T06:30:24;-1.15;70.89
66752;SHT31;53663;42.676;23.238;2024-01-15T06:32:50;-1.06;70.53
66752;SHT31;53663;42.676;23.238;2024-01-15T06:35:15;-0.85;69.88
66752;SHT31;53663;42.676;23.238;2024-01-15T06:37:41;-0.61;69.05
66752;SHT31;53663;42.676;23.238;2024-01-15T06:40:07;0.23;67.44
66752;SHT31;53663;42.676;23.238;2024-01-15T06:42:33;1.04;64.74
66752;SHT31;53663;42.676;23.238;2024-01-15T06:44:58;0.81;63.78
66752;SHT31;53663;42.676;23.238;2024-01-15T06:47:24;0.80;63.50
66752;SHT31;53663;42.676;23.238;2024-01-15T06:49:49;0.54;63.47
66752;SHT31;53663;42.676;23.238;2024-01-15T06:52:17;0.48;63.72
66752;SHT31;53663;42.676;23.238;2024-01-15T06:54:42;0.46;64.25
66752;SHT31;53663;42.676;23.238;2024-01-15T06:57:08;-0.05;66.12
66752;SHT31;53663;42.676;23.238;2024-01-15T06:59:34;0.09;66.57
66752;SHT31;53663;42.676;23.238;2024-01-15T07:02:02;0.18;66.12
66752;SHT31;53663;42.676;23.238;2024-01-15T07:04:28;0.28;65.56
66752;SHT31;53663;42.676;23.238;2024-01-15T07:06:53;0.02;66.29
66752;SHT31;53663;42.676;23.238;2024-01-15T07:09:19;0.21;66.05
66752;SHT31;53663;42.676;23.238;2024-01-15T07:11:45;0.16;65.98
66752;SHT31;53663;42.676;23.238;2024-01-15T07:14:12;-0.73;67.51
66752;SHT31;53663;42.676;23.238;2024-01-15T07:16:37;-0.57;68.21
66752;SHT31;53663;42.676;23.238;2024-01-15T07:19:03;-0.95;68.88
66752;SHT31;53663;42.676;23.238;2024-01-15T07:21:28;-1.11;69.37
66752;SHT31;53663;42.676;23.238;2024-01-15T07:23:55;-0.91;69.19
66752;SHT31;53663;42.676;23.238;2024-01-15T07:26:20;-0.65;69.27
66752;SHT31;53663;42.676;23.238;2024-01-15T07:28:46;-0.60;69.23
66752;SHT31;53663;42.676;23.238;2024-01-15T07:31:12;-0.34;69.06
66752;SHT31;53663;42.676;23.238;2024-01-15T07:33:37;-0.36;67.98
66752;SHT31;53663;42.676;23.238;2024-01-15T07:36:03;-0.30;68.32
66752;SHT31;53663;42.676;23.238;2024-01-15T07:38:29;-0.08;68.09
66752;SHT31;53663;42.676;23.238;2024-01-15T07:40:54;0.09;68.21
66752;SHT31;53663;42.676;23.238;2024-01-15T07:43:20;0.29;67.27
66752;SHT31;53663;42.676;23.238;2024-01-15T07:45:46;0.01;66.90
66752;SHT31;53663;42.676;23.238;2024-01-15T07:48:11;-0.15;67.66
66752;SHT31;53663;42.676;23.238;2024-01-15T07:50:37;-0.13;67.03
66752;SHT31;53663;42.676;23.238;2024-01-15T07:53:03;-0.19;67.69
66752;SHT31;53663;42.676;23.238;2024-01-15T07:55:29;0.02;67.57
66752;SHT31;53663;42.676;23.238;2024-01-15T07:57:54;0.16;67.17
66752;SHT31;53663;42.676;23.238;2024-01-15T08:00:24;-0.08;67.12
66752;SHT31;53663;42.676;23.238;2024-01-15T08:02:50;0.35;67.11
66752;SHT31;53663;42.676;23.238;2024-01-15T08:05:16;0.73;64.74
66752;SHT31;53663;42.676;23.238;2024-01-15T08:07:42;0.92;63.38
66752;SHT31;53663;42.676;23.238;2024-01-15T08:10:07;0.79;64.35
66752;SHT31;53663;42.676;23.238;2024-01-15T08:12:33;0.94;63.66
66752;SHT31;53663;42.676;23.238;2024-01-15T08:14:59;0.92;62.98
66752;SHT31;53663;42.676;23.238;2024-01-15T08:17:24;1.08;62.99
66752;SHT31;53663;42.676;23.238;2024-01-15T08:19:54;1.64;60.52
66752;SHT31;53663;42.676;23.238;2024-01-15T08:22:19;1.83;59.32
66752;SHT31;53663;42.676;23.238;2024-01-15T08:24:45;2.15;58.43
66752;SHT31;53663;42.676;23.238;2024-01-15T08:27:11;2.53;57.38
66752;SHT31;53663;42.676;23.238;2024-01-15T08:29:36;2.83;56.94
66752;SHT31;53663;42.676;23.238;2024-01-15T08:32:02;3.01;56.40
66752;SHT31;53663;42.676;23.238;2024-01-15T08:34:27;3.54;55.60
66752;SHT31;53663;42.676;23.238;2024-01-15T08:36:53;5.37;49.21
66752;SHT31;53663;42.676;23.238;2024-01-15T08:39:19;6.13;47.87
66752;SHT31;53663;42.676;23.238;2024-01-15T08:41:45;4.73;50.75
66752;SHT31;53663;42.676;23.238;2024-01-15T08:44:12;3.92;52.88
66752;SHT31;53663;42.676;23.238;2024-01-15T08:46:38;3.51;54.31
66752;SHT31;53663;42.676;23.238;2024-01-15T08:49:03;2.18;58.25
66752;SHT31;53663;42.676;23.238;2024-01-15T08:51:29;2.53;58.07
66752;SHT31;53663;42.676;23.238;2024-01-15T08:53:56;3.28;56.45
66752;SHT31;53663;42.676;23.238;2024-01-15T08:56:21;4.10;54.45
66752;SHT31;53663;42.676;23.238;2024-01-15T08:58:47;4.09;52.90
66752;SHT31;53663;42.676;23.238;2024-01-15T09:01:12;6.84;47.15
66752;SHT31;53663;42.676;23.238;2024-01-15T09:03:39;10.71;38.61
66752;SHT31;53663;42.676;23.238;2024-01-15T09:06:07;15.17;32.78
66752;SHT31;53663;42.676;23.238;2024-01-15T09:08:32;15.52;28.46
66752;SHT31;53663;42.676;23.238;2024-01-15T09:10:58;16.05;27.96
66752;SHT31;53663;42.676;23.238;2024-01-15T09:13:23;14.20;29.67
66752;SHT31;53663;42.676;23.238;2024-01-15T09:15:49;16.84;26.39
66752;SHT31;53663;42.676;23.238;2024-01-15T09:18:14;19.11;23.37
66752;SHT31;53663;42.676;23.238;2024-01-15T09:20:40;20.31;22.41
66752;SHT31;53663;42.676;23.238;2024-01-15T09:23:05;20.92;21.30
66752;SHT31;53663;42.676;23.238;2024-01-15T09:25:31;18.60;23.00
66752;SHT31;53663;42.676;23.238;2024-01-15T09:27:56;17.71;25.81
66752;SHT31;53663;42.676;23.238;2024-01-15T09:30:22;20.14;21.40
66752;SHT31;53663;42.676;23.238;2024-01-15T09:32:48;16.56;26.06
66752;SHT31;53663;42.676;23.238;2024-01-15T09:35:13;14.79;27.49
66752;SHT31;53663;42.676;23.238;2024-01-15T09:37:39;13.11;31.12
66752;SHT31;53663;42.676;23.238;2024-01-15T09:40:06;11.65;32.97
66752;SHT31;53663;42.676;23.238;2024-01-15T09:42:32;11.89;33.72
66752;SHT31;53663;42.676;23.238;2024-01-15T09:44:58;15.48;28.57
66752;SHT31;53663;42.676;23.238;2024-01-15T09:47:24;19.75;23.20
66752;SHT31;53663;42.676;23.238;2024-01-15T09:49:50;20.56;21.83
66752;SHT31;53663;42.676;23.238;2024-01-15T09:52:16;21.77;21.02
66752;SHT31;53663;42.676;23.238;2024-01-15T09:54:44;23.11;18.87
66752;SHT31;53663;42.676;23.238;2024-01-15T09:57:10;22.63;19.50
66752;SHT31;53663;42.676;23.238;2024-01-15T09:59:37;23.61;18.28
66752;SHT31;53663;42.676;23.238;2024-01-15T10:02:03;24.99;17.19
66752;SHT31;53663;42.676;23.238;2024-01-15T10:04:29;23.79;18.04
66752;SHT31;53663;42.676;23.238;2024-01-15T10:06:56;24.06;18.54
66752;SHT31;53663;42.676;23.238;2024-01-15T10:09:23;24.68;17.47
66752;SHT31;53663;42.676;23.238;2024-01-15T10:11:48;24.48;17.09
66752;SHT31;53663;42.676;23.238;2024-01-15T10:14:14;23.11;18.37
66752;SHT31;53663;42.676;23.238;2024-01-15T10:16:42;23.01;19.06
66752;SHT31;53663;42.676;23.238;2024-01-15T10:19:08;22.46;19.11
66752;SHT31;53663;42.676;23.238;2024-01-15T10:21:35;18.15;24.60
66752;SHT31;53663;42.676;23.238;2024-01-15T10:24:02;17.23;25.28
66752;SHT31;53663;42.676;23.238;2024-01-15T10:26:28;15.96;26.83
66752;SHT31;53663;42.676;23.238;2024-01-15T10:28:54;13.49;31.62
66752;SHT31;53663;42.676;23.238;2024-01-15T10:31:20;12.67;33.79
66752;SHT31;53663;42.676;23.238;2024-01-15T10:33:49;12.83;32.20
66752;SHT31;53663;42.676;23.238;2024-01-15T10:36:15;13.62;31.86
66752;SHT31;53663;42.676;23.238;2024-01-15T10:38:42;15.06;28.51
66752;SHT31;53663;42.676;23.238;2024-01-15T10:41:08;15.57;27.81
66752;SHT31;53663;42.676;23.238;2024-01-15T10:43:33;15.73;27.10
66752;SHT31;53663;42.676;23.238;2024-01-15T10:45:59;16.61;26.97
66752;SHT31;53663;42.676;23.238;2024-01-15T10:48:25;15.90;27.81
66752;SHT31;53663;42.676;23.238;2024-01-15T10:50:53;15.50;26.98
66752;SHT31;53663;42.676;23.238;2024-01-15T10:53:20;14.32;29.25
66752;SHT31;53663;42.676;23.238;2024-01-15T10:55:47;14.79;29.48
66752;SHT31;53663;42.676;23.238;2024-01-15T10:58:14;14.56;29.13
66752;SHT31;53663;42.676;23.238;2024-01-15T11:00:41;13.55;31.50
66752;SHT31;53663;42.676;23.238;2024-01-15T11:03:07;13.40;32.56
66752;SHT31;53663;42.676;23.238;2024-01-15T11:05:34;14.94;30.59
66752;SHT31;53663;42.676;23.238;2024-01-15T11:08:01;17.11;26.67
66752;SHT31;53663;42.676;23.238;2024-01-15T11:10:41;18.28;25.07
66752;SHT31;53663;42.676;23.238;2024-01-15T11:13:14;19.15;24.14
66752;SHT31;53663;42.676;23.238;2024-01-15T11:16:00;19.72;22.74
66752;SHT31;53663;42.676;23.238;2024-01-15T11:18:27;17.64;25.65
66752;SHT31;53663;42.676;23.238;2024-01-15T11:28:57;15.45;28.35
66752;SHT31;53663;42.676;23.238;2024-01-15T11:34:10;12.59;32.36
66752;SHT31;53663;42.676;23.238;2024-01-15T11:39:40;9.78;37.88
66752;SHT31;53663;42.676;23.238;2024-01-15T11:42:09;9.35;39.11
66752;SHT31;53663;42.676;23.238;2024-01-15T11:44:34;9.69;39.34
66752;SHT31;53663;42.676;23.238;2024-01-15T11:47:02;9.30;39.13
66752;SHT31;53663;42.676;23.238;2024-01-15T11:52:19;8.53;41.21
66752;SHT31;53663;42.676;23.238;2024-01-15T11:57:24;9.25;40.06
66752;SHT31;53663;42.676;23.238;2024-01-15T11:59:51;10.44;38.58
66752;SHT31;53663;42.676;23.238;2024-01-15T12:02:16;9.49;38.53
66752;SHT31;53663;42.676;23.238;2024-01-15T12:04:42;8.62;40.74
66752;SHT31;53663;42.676;23.238;2024-01-15T12:07:08;8.33;41.19
66752;SHT31;53663;42.676;23.238;2024-01-15T12:09:33;7.74;42.98
66752;SHT31;53663;42.676;23.238;2024-01-15T12:12:04;7.54;44.07
66752;SHT31;53663;42.676;23.238;2024-01-15T12:14:32;7.47;44.30
66752;SHT31;53663;42.676;23.238;2024-01-15T12:16:57;7.52;44.67
66752;SHT31;53663;42.676;23.238;2024-01-15T12:19:23;7.54;45.85
66752;SHT31;53663;42.676;23.238;2024-01-15T12:21:50;7.23;47.04
66752;SHT31;53663;42.676;23.238;2024-01-15T12:24:17;6.68;46.67
66752;SHT31;53663;42.676;23.238;2024-01-15T12:26:42;6.19;47.91
66752;SHT31;53663;42.676;23.238;2024-01-15T12:29:10;6.46;49.64
66752;SHT31;53663;42.676;23.238;2024-01-15T12:31:36;6.32;48.59
66752;SHT31;53663;42.676;23.238;2024-01-15T12:34:01;6.63;48.03
66752;SHT31;53663;42.676;23.238;2024-01-15T12:36:30;7.05;46.37
66752;SHT31;53663;42.676;23.238;2024-01-15T12:39:00;6.77;45.70
66752;SHT31;53663;42.676;23.238;2024-01-15T12:41:26;6.53;46.36
66752;SHT31;53663;42.676;23.238;2024-01-15T12:43:51;5.72;49.78
66752;SHT31;53663;42.676;23.238;2024-01-15T12:46:17;5.81;48.77
66752;SHT31;53663;42.676;23.238;2024-01-15T12:48:44;5.62;49.47
66752;SHT31;53663;42.676;23.238;2024-01-15T12:51:10;5.70;49.96
66752;SHT31;53663;42.676;23.238;2024-01-15T12:53:35;5.82;50.50
66752;SHT31;53663;42.676;23.238;2024-01-15T12:56:01;6.12;48.17
66752;SHT31;53663;42.676;23.238;2024-01-15T12:58:26;5.61;49.82
66752;SHT31;53663;42.676;23.238;2024-01-15T13:00:52;5.77;50.12
66752;SHT31;53663;42.676;23.238;2024-01-15T13:03:17;5.77;50.99
66752;SHT31;53663;42.676;23.238;2024-01-15T13:05:43;5.87;49.95
66752;SHT31;53663;42.676;23.238;2024-01-15T13:08:10;5.89;50.70
66752;SHT31;53663;42.676;23.238;2024-01-15T13:10:35;6.09;51.09
66752;SHT31;53663;42.676;23.238;2024-01-15T13:13:01;6.05;51.13
66752;SHT31;53663;42.676;23.238;2024-01-15T13:15:27;6.01;51.32
66752;SHT31;53663;42.676;23.238;2024-01-15T13:17:52;6.01;52.11
66752;SHT31;53663;42.676;23.238;2024-01-15T13:20:18;6.05;50.56
66752;SHT31;53663;42.676;23.238;2024-01-15T13:22:43;5.79;51.35
66752;SHT31;53663;42.676;23.238;2024-01-15T13:25:09;5.84;51.82
66752;SHT31;53663;42.676;23.238;2024-01-15T13:27:36;5.75;52.39
66752;SHT31;53663;42.676;23.238;2024-01-15T13:30:03;5.82;52.49
66752;SHT31;53663;42.676;23.238;2024-01-15T13:32:29;6.08;52.60
66752;SHT31;53663;42.676;23.238;2024-01-15T13:34:56;6.18;52.44
66752;SHT31;53663;42.676;23.238;2024-01-15T13:37:22;6.20;51.35
66752;SHT31;53663;42.676;23.238;2024-01-15T13:39:50;6.03;52.54
66752;SHT31;53663;42.676;23.238;2024-01-15T13:42:17;5.84;53.44
66752;SHT31;53663;42.676;23.238;2024-01-15T13:44:43;5.89;53.36
66752;SHT31;53663;42.676;23.238;2024-01-15T13:47:08;5.81;53.34
66752;SHT31;53663;42.676;23.238;2024-01-15T13:49:34;5.68;54.72
66752;SHT31;53663;42.676;23.238;2024-01-15T13:52:01;5.71;54.51
66752;SHT31;53663;42.676;23.238;2024-01-15T13:54:29;5.78;53.82
66752;SHT31;53663;42.676;23.238;2024-01-15T13:56:55;5.52;53.95
66752;SHT31;53663;42.676;23.238;2024-01-15T13:59:21;5.26;54.17
66752;SHT31;53663;42.676;23.238;2024-01-15T14:01:46;4.91;53.95
66752;SHT31;53663;42.676;23.238;2024-01-15T14:04:13;5.09;55.97
66752;SHT31;53663;42.676;23.238;2024-01-15T14:06:38;5.30;55.61
66752;SHT31;53663;42.676;23.238;2024-01-15T14:09:04;5.02;55.95
66752;SHT31;53663;42.676;23.238;2024-01-15T14:11:31;4.99;55.75
66752;SHT31;53663;42.676;23.238;2024-01-15T14:13:56;5.08;55.99
66752;SHT31;53663;42.676;23.238;2024-01-15T14:16:22;4.97;55.94
66752;SHT31;53663;42.676;23.238;2024-01-15T14:18:47;5.05;55.96
66752;SHT31;53663;42.676;23.238;2024-01-15T14:21:13;4.75;56.02
66752;SHT31;53663;42.676;23.238;2024-01-15T14:23:39;4.89;56.04
66752;SHT31;53663;42.676;23.238;2024-01-15T14:26:05;4.43;57.83
66752;SHT31;53663;42.676;23.238;2024-01-15T14:28:30;4.61;57.63
66752;SHT31;53663;42.676;23.238;2024-01-15T14:30:56;4.72;57.54
66752;SHT31;53663;42.676;23.238;2024-01-15T14:33:23;4.43;57.01
66752;SHT31;53663;42.676;23.238;2024-01-15T14:35:49;4.21;58.42
66752;SHT31;53663;42.676;23.238;2024-01-15T14:38:14;4.37;57.67
66752;SHT31;53663;42.676;23.238;2024-01-15T14:40:40;4.04;59.29
66752;SHT31;53663;42.676;23.238;2024-01-15T14:43:05;4.18;59.15
66752;SHT31;53663;42.676;23.238;2024-01-15T14:45:31;4.27;59.19
66752;SHT31;53663;42.676;23.238;2024-01-15T14:47:57;4.34;59.46
66752;SHT31;53663;42.676;23.238;2024-01-15T14:50:23;4.24;57.91
66752;SHT31;53663;42.676;23.238;2024-01-15T14:52:49;4.43;57.29
66752;SHT31;53663;42.676;23.238;2024-01-15T14:55:14;4.45;56.74
66752;SHT31;53663;42.676;23.238;2024-01-15T14:57:40;4.18;57.97
66752;SHT31;53663;42.676;23.238;2024-01-15T15:00:06;4.25;59.84
66752;SHT31;53663;42.676;23.238;2024-01-15T15:02:36;4.27;60.22
66752;SHT31;53663;42.676;23.238;2024-01-15T15:05:03;4.27;58.83
66752;SHT31;53663;42.676;23.238;2024-01-15T15:07:29;4.27;59.56
66752;SHT31;53663;42.676;23.238;2024-01-15T15:09:54;4.41;60.15
66752;SHT31;53663;42.676;23.238;2024-01-15T15:12:20;4.38;59.80
66752;SHT31;53663;42.676;23.238;2024-01-15T15:14:45;4.34;60.36
66752;SHT31;53663;42.676;23.238;2024-01-15T15:17:11;4.38;60.59
66752;SHT31;53663;42.676;23.238;2024-01-15T15:19:37;4.44;60.57
66752;SHT31;53663;42.676;23.238;2024-01-15T15:22:05;4.29;60.43
66752;SHT31;53663;42.676;23.238;2024-01-15T15:24:31;4.16;60.43
66752;SHT31;53663;42.676;23.238;2024-01-15T15:26:56;4.17;61.18
66752;SHT31;53663;42.676;23.238;2024-01-15T15:29:22;4.18;61.79
66752;SHT31;53663;42.676;23.238;2024-01-15T15:31:49;3.99;62.59
66752;SHT31;53663;42.676;23.238;2024-01-15T15:34:15;3.85;62.94